Time,TemperatureF,DewpointF,PressureIn,WindDirection,WindDirectionDegrees,WindSpeedMPH,WindSpeedGustMPH,Humidity,HourlyPrecipIn,Conditions,Clouds,dailyrainin,SoftwareType,DateUTC
2013-06-11 00:02:00,56.0,51.0,29.53,South,169,0.0,-999.0,82,-99.99,,,-99.99,,2013-06-11 06:02:00,
2013-06-11 00:12:00,56.0,51.0,29.53,South,169,0.0,-999.0,82,-99.99,,,-99.99,,2013-06-11 06:12:00,
2013-06-11 00:22:00,55.0,51.0,29.53,South,169,0.0,-999.0,85,-99.99,,,-99.99,,2013-06-11 06:22:00,
2013-06-11 00:32:00,55.0,51.0,29.52,South,169,0.0,-999.0,87,-99.99,,,-99.99,,2013-06-11 06:32:00,
2013-06-11 00:42:00,55.0,51.0,29.52,South,169,0.0,-999.0,87,-99.99,,,-99.99,,2013-06-11 06:42:00,
2013-06-11 00:52:00,56.0,51.0,29.52,South,169,0.0,-999.0,82,-99.99,,,-99.99,,2013-06-11 06:52:00,
2013-06-11 01:02:00,56.0,51.0,29.53,South,169,0.0,-999.0,83,-99.99,,,-99.99,,2013-06-11 07:02:00,
2013-06-11 01:13:00,56.0,51.0,29.52,East,90,5.0,-999.0,83,-99.99,,,-99.99,,2013-06-11 07:13:00,
2013-06-11 01:22:00,56.0,51.0,29.52,East,90,5.0,-999.0,83,-99.99,,,-99.99,,2013-06-11 07:22:00,
2013-06-11 01:32:00,57.0,51.0,29.53,East,92,2.0,-999.0,80,-99.99,,,-99.99,,2013-06-11 07:32:00,
2013-06-11 01:42:00,56.0,50.0,29.53,East,90,2.0,-999.0,80,-99.99,,,-99.99,,2013-06-11 07:42:00,
2013-06-11 01:52:00,56.0,50.0,29.53,East,90,2.0,-999.0,80,-99.99,,,-99.99,,2013-06-11 07:52:00,
2013-06-11 02:02:00,57.0,50.0,29.53,East,90,1.0,-999.0,78,-99.99,,,-99.99,,2013-06-11 08:02:00,
2013-06-11 02:12:00,57.0,50.0,29.53,East,90,1.0,-999.0,78,-99.99,,,-99.99,,2013-06-11 08:12:00,
2013-06-11 02:22:00,56.0,51.0,29.53,NNE,17,2.0,-999.0,82,-99.99,,,-99.99,,2013-06-11 08:22:00,
2013-06-11 02:32:00,55.0,50.0,29.54,NE,40,4.0,-999.0,84,-99.99,,,-99.99,,2013-06-11 08:32:00,
2013-06-11 02:42:00,54.0,49.0,29.54,NE,40,1.0,-999.0,84,-99.99,,,-99.99,,2013-06-11 08:42:00,
2013-06-11 02:52:00,54.0,49.0,29.54,NE,40,1.0,-999.0,84,-99.99,,,-99.99,,2013-06-11 08:52:00,
2013-06-11 03:02:00,55.0,50.0,29.54,NE,40,0.0,-999.0,83,-99.99,,,-99.99,,2013-06-11 09:02:00,
2013-06-11 03:12:00,55.0,50.0,29.54,NE,40,0.0,-999.0,83,-99.99,,,-99.99,,2013-06-11 09:12:00,
2013-06-11 03:22:00,54.0,50.0,29.55,NNE,16,3.0,-999.0,86,-99.99,,,-99.99,,2013-06-11 09:22:00,
2013-06-11 03:33:00,54.0,50.0,29.56,NNE,14,4.0,-999.0,87,-99.99,,,-99.99,,2013-06-11 09:33:00,
2013-06-11 03:43:00,54.0,50.0,29.56,NNE,14,4.0,-999.0,87,-99.99,,,-99.99,,2013-06-11 09:43:00,
2013-06-11 03:53:00,53.0,50.0,29.55,NNE,14,2.0,-999.0,89,-99.99,,,-99.99,,2013-06-11 09:53:00,
2013-06-11 04:03:00,53.0,50.0,29.54,NNE,14,2.0,-999.0,89,-99.99,,,-99.99,,2013-06-11 10:03:00,
2013-06-11 04:12:00,53.0,50.0,29.54,NNE,14,2.0,-999.0,89,-99.99,,,-99.99,,2013-06-11 10:12:00,
2013-06-11 04:22:00,53.0,50.0,29.54,NNE,14,0.0,-999.0,89,-99.99,,,-99.99,,2013-06-11 10:22:00,
2013-06-11 04:33:00,53.0,50.0,29.54,NNE,14,0.0,-999.0,89,-99.99,,,-99.99,,2013-06-11 10:33:00,
2013-06-11 04:42:00,53.0,50.0,29.54,NNE,14,0.0,-999.0,89,-99.99,,,-99.99,,2013-06-11 10:42:00,
2013-06-11 04:52:00,53.0,50.0,29.55,NNE,14,0.0,-999.0,89,-99.99,,,-99.99,,2013-06-11 10:52:00,
2013-06-11 05:02:00,52.0,49.0,29.55,NNE,14,2.0,-999.0,89,-99.99,,,-99.99,,2013-06-11 11:02:00,
2013-06-11 05:12:00,52.0,49.0,29.55,NNE,14,2.0,-999.0,89,-99.99,,,-99.99,,2013-06-11 11:12:00,
2013-06-11 05:22:00,52.0,49.0,29.55,NNE,14,1.0,-999.0,90,-99.99,,,-99.99,,2013-06-11 11:22:00,
2013-06-11 05:32:00,52.0,49.0,29.55,NNE,14,0.0,-999.0,90,-99.99,,,-99.99,,2013-06-11 11:32:00,
2013-06-11 05:42:00,52.0,49.0,29.55,NNE,14,0.0,-999.0,90,-99.99,,,-99.99,,2013-06-11 11:42:00,
2013-06-11 05:52:00,52.0,49.0,29.55,NNE,14,0.0,-999.0,90,-99.99,,,-99.99,,2013-06-11 11:52:00,
2013-06-11 06:02:00,52.0,49.0,29.56,NNE,14,0.0,-999.0,88,-99.99,,,-99.99,,2013-06-11 12:02:00,
2013-06-11 06:12:00,53.0,49.0,29.57,NNE,14,0.0,-999.0,87,-99.99,,,-99.99,,2013-06-11 12:12:00,
2013-06-11 06:22:00,53.0,49.0,29.57,NNE,14,0.0,-999.0,87,-99.99,,,-99.99,,2013-06-11 12:22:00,
2013-06-11 06:32:00,53.0,50.0,29.56,NNE,14,0.0,-999.0,89,-99.99,,,-99.99,,2013-06-11 12:32:00,
2013-06-11 06:42:00,55.0,51.0,29.57,NNE,14,0.0,-999.0,86,-99.99,,,-99.99,,2013-06-11 12:42:00,
2013-06-11 06:52:00,55.0,51.0,29.57,NNE,14,0.0,-999.0,86,-99.99,,,-99.99,,2013-06-11 12:52:00,
2013-06-11 07:02:00,56.0,51.0,29.57,NNE,17,2.0,-999.0,82,-99.99,,,-99.99,,2013-06-11 13:02:00,
2013-06-11 07:12:00,56.0,51.0,29.57,NNE,17,2.0,-999.0,82,-99.99,,,-99.99,,2013-06-11 13:12:00,
2013-06-11 07:22:00,58.0,52.0,29.57,NNE,17,3.0,-999.0,79,-99.99,,,-99.99,,2013-06-11 13:22:00,
2013-06-11 07:32:00,59.0,52.0,29.57,NNE,17,2.0,-999.0,77,-99.99,,,-99.99,,2013-06-11 13:32:00,
2013-06-11 07:42:00,59.0,52.0,29.57,NNE,17,2.0,-999.0,77,-99.99,,,-99.99,,2013-06-11 13:42:00,
2013-06-11 07:52:00,61.0,53.0,29.57,ENE,59,1.0,-999.0,74,-99.99,,,-99.99,,2013-06-11 13:52:00,
2013-06-11 08:02:00,61.0,52.0,29.57,East,96,7.0,-999.0,71,-99.99,,,-99.99,,2013-06-11 14:02:00,
2013-06-11 08:12:00,61.0,52.0,29.57,East,96,7.0,-999.0,71,-99.99,,,-99.99,,2013-06-11 14:12:00,
2013-06-11 08:22:00,62.0,53.0,29.57,East,93,8.0,-999.0,72,-99.99,,,-99.99,,2013-06-11 14:22:00,
2013-06-11 08:32:00,62.0,52.0,29.57,SE,130,10.0,-999.0,70,-99.99,,,-99.99,,2013-06-11 14:32:00,
2013-06-11 08:42:00,62.0,52.0,29.57,SE,130,10.0,-999.0,70,-99.99,,,-99.99,,2013-06-11 14:42:00,
2013-06-11 08:52:00,62.0,52.0,29.57,East,84,8.0,-999.0,71,-99.99,,,-99.99,,2013-06-11 14:52:00,
2013-06-11 09:02:00,63.0,53.0,29.57,East,85,9.0,-999.0,71,-99.99,,,-99.99,,2013-06-11 15:02:00,
2013-06-11 09:12:00,63.0,53.0,29.57,East,85,9.0,-999.0,71,-99.99,,,-99.99,,2013-06-11 15:12:00,
2013-06-11 09:22:00,63.0,53.0,29.57,East,91,8.0,-999.0,69,-99.99,,,-99.99,,2013-06-11 15:22:00,
2013-06-11 09:33:00,64.0,54.0,29.57,East,82,8.0,-999.0,69,-99.99,,,-99.99,,2013-06-11 15:33:00,
2013-06-11 09:42:00,64.0,54.0,29.57,East,82,8.0,-999.0,69,-99.99,,,-99.99,,2013-06-11 15:42:00,
2013-06-11 09:53:00,65.0,53.0,29.57,ESE,108,9.0,-999.0,64,-99.99,,,-99.99,,2013-06-11 15:53:00,
2013-06-11 10:03:00,66.0,53.0,29.57,East,94,10.0,-999.0,63,-99.99,,,-99.99,,2013-06-11 16:03:00,
2013-06-11 10:12:00,66.0,53.0,29.57,East,94,10.0,-999.0,63,-99.99,,,-99.99,,2013-06-11 16:12:00,
2013-06-11 10:22:00,66.0,53.0,29.57,East,94,10.0,-999.0,63,-99.99,,,-99.99,,2013-06-11 16:22:00,
2013-06-11 10:32:00,67.0,53.0,29.56,East,101,11.0,-999.0,61,-99.99,,,-99.99,,2013-06-11 16:32:00,
2013-06-11 10:42:00,67.0,53.0,29.56,East,101,11.0,-999.0,61,-99.99,,,-99.99,,2013-06-11 16:42:00,
2013-06-11 10:52:00,68.0,53.0,29.56,SE,126,10.0,-999.0,58,-99.99,,,-99.99,,2013-06-11 16:52:00,
2013-06-11 11:02:00,68.0,54.0,29.56,East,101,9.0,-999.0,60,-99.99,,,-99.99,,2013-06-11 17:02:00,
2013-06-11 11:12:00,68.0,54.0,29.56,East,101,9.0,-999.0,60,-99.99,,,-99.99,,2013-06-11 17:12:00,
2013-06-11 11:22:00,67.0,53.0,29.57,ESE,112,7.0,-999.0,60,-99.99,,,-99.99,,2013-06-11 17:22:00,
2013-06-11 11:32:00,68.0,53.0,29.56,ESE,114,6.0,-999.0,59,-99.99,,,-99.99,,2013-06-11 17:32:00,
2013-06-11 11:43:00,69.0,54.0,29.57,SE,135,7.0,-999.0,58,-99.99,,,-99.99,,2013-06-11 17:43:00,
2013-06-11 11:52:00,69.0,54.0,29.57,SE,135,7.0,-999.0,58,-99.99,,,-99.99,,2013-06-11 17:52:00,
2013-06-11 12:02:00,70.0,54.0,29.57,SSE,157,8.0,-999.0,57,-99.99,,,-99.99,,2013-06-11 18:02:00,
2013-06-11 12:12:00,70.0,54.0,29.57,SSE,157,8.0,-999.0,57,-99.99,,,-99.99,,2013-06-11 18:12:00,
2013-06-11 12:22:00,70.0,53.0,29.57,SE,133,7.0,-999.0,54,-99.99,,,-99.99,,2013-06-11 18:22:00,
2013-06-11 12:32:00,70.0,54.0,29.57,ESE,105,7.0,-999.0,57,-99.99,,,-99.99,,2013-06-11 18:32:00,
2013-06-11 12:42:00,70.0,54.0,29.57,ESE,105,7.0,-999.0,57,-99.99,,,-99.99,,2013-06-11 18:42:00,
2013-06-11 12:52:00,71.0,52.0,29.55,SE,141,10.0,-999.0,52,-99.99,,,-99.99,,2013-06-11 18:52:00,
2013-06-11 13:02:00,73.0,55.0,29.55,ESE,111,9.0,-999.0,53,-99.99,,,-99.99,,2013-06-11 19:02:00,
2013-06-11 13:12:00,73.0,55.0,29.55,ESE,111,9.0,-999.0,53,-99.99,,,-99.99,,2013-06-11 19:12:00,
2013-06-11 13:22:00,72.0,54.0,29.55,East,100,8.0,-999.0,53,-99.99,,,-99.99,,2013-06-11 19:22:00,
2013-06-11 13:33:00,74.0,55.0,29.54,ESE,102,10.0,-999.0,52,-99.99,,,-99.99,,2013-06-11 19:33:00,
2013-06-11 13:42:00,74.0,55.0,29.54,ESE,102,10.0,-999.0,52,-99.99,,,-99.99,,2013-06-11 19:42:00,
2013-06-11 13:52:00,74.0,54.0,29.54,East,96,9.0,-999.0,50,-99.99,,,-99.99,,2013-06-11 19:52:00,
2013-06-11 14:03:00,75.0,56.0,29.53,ENE,72,10.0,-999.0,51,-99.99,,,-99.99,,2013-06-11 20:03:00,
2013-06-11 14:12:00,75.0,56.0,29.53,ENE,72,10.0,-999.0,51,-99.99,,,-99.99,,2013-06-11 20:12:00,
2013-06-11 14:22:00,76.0,52.0,29.53,ESE,109,13.0,-999.0,44,-99.99,,,-99.99,,2013-06-11 20:22:00,
2013-06-11 14:32:00,76.0,52.0,29.52,SSE,163,11.0,-999.0,43,-99.99,,,-99.99,,2013-06-11 20:32:00,
2013-06-11 14:42:00,76.0,52.0,29.52,SSE,163,11.0,-999.0,43,-99.99,,,-99.99,,2013-06-11 20:42:00,
2013-06-11 14:52:00,75.0,52.0,29.52,East,101,11.0,-999.0,45,-99.99,,,-99.99,,2013-06-11 20:52:00,
2013-06-11 15:02:00,76.0,52.0,29.52,ESE,117,12.0,-999.0,43,-99.99,,,-99.99,,2013-06-11 21:02:00,
2013-06-11 15:12:00,76.0,52.0,29.52,ESE,117,12.0,-999.0,43,-99.99,,,-99.99,,2013-06-11 21:12:00,
2013-06-11 15:22:00,77.0,53.0,29.52,East,94,12.0,-999.0,43,-99.99,,,-99.99,,2013-06-11 21:22:00,
2013-06-11 15:33:00,77.0,51.0,29.52,ESE,113,11.0,-999.0,40,-99.99,,,-99.99,,2013-06-11 21:33:00,
2013-06-11 15:42:00,77.0,51.0,29.52,ESE,113,11.0,-999.0,40,-99.99,,,-99.99,,2013-06-11 21:42:00,
2013-06-11 15:53:00,76.0,51.0,29.52,ESE,111,11.0,-999.0,41,-99.99,,,-99.99,,2013-06-11 21:53:00,
2013-06-11 16:03:00,78.0,51.0,29.52,ESE,115,12.0,-999.0,39,-99.99,,,-99.99,,2013-06-11 22:03:00,
2013-06-11 16:12:00,78.0,51.0,29.52,ESE,115,12.0,-999.0,39,-99.99,,,-99.99,,2013-06-11 22:12:00,
2013-06-11 16:22:00,78.0,51.0,29.52,East,85,12.0,-999.0,39,-99.99,,,-99.99,,2013-06-11 22:22:00,
2013-06-11 16:33:00,77.0,51.0,29.51,ESE,122,12.0,-999.0,40,-99.99,,,-99.99,,2013-06-11 22:33:00,
2013-06-11 16:42:00,77.0,51.0,29.51,ESE,122,12.0,-999.0,40,-99.99,,,-99.99,,2013-06-11 22:42:00,
2013-06-11 16:52:00,76.0,52.0,29.51,East,81,12.0,-999.0,44,-99.99,,,-99.99,,2013-06-11 22:52:00,
2013-06-11 17:02:00,76.0,52.0,29.51,East,90,12.0,-999.0,43,-99.99,,,-99.99,,2013-06-11 23:02:00,
2013-06-11 17:12:00,76.0,52.0,29.51,East,90,12.0,-999.0,43,-99.99,,,-99.99,,2013-06-11 23:12:00,
2013-06-11 17:22:00,76.0,53.0,29.51,East,84,10.0,-999.0,45,-99.99,,,-99.99,,2013-06-11 23:22:00,
2013-06-11 17:32:00,74.0,52.0,29.51,NE,51,11.0,-999.0,46,-99.99,,,-99.99,,2013-06-11 23:32:00,
2013-06-11 17:42:00,74.0,52.0,29.51,NE,51,11.0,-999.0,46,-99.99,,,-99.99,,2013-06-11 23:42:00,
2013-06-11 17:52:00,74.0,53.0,29.52,ENE,60,11.0,-999.0,48,-99.99,,,-99.99,,2013-06-11 23:52:00,
2013-06-11 18:02:00,74.0,53.0,29.52,ENE,60,11.0,-999.0,48,-99.99,,,-99.99,,2013-06-12 00:02:00,
2013-06-11 18:12:00,74.0,53.0,29.52,ENE,60,11.0,-999.0,48,-99.99,,,-99.99,,2013-06-12 00:12:00,
2013-06-11 18:22:00,74.0,53.0,29.52,ENE,60,11.0,-999.0,48,-99.99,,,-99.99,,2013-06-12 00:22:00,
2013-06-11 22:53:00,57.0,53.0,29.65,NNE,30,1.0,-999.0,86,-99.99,,,-99.99,,2013-06-12 04:53:00,
2013-06-11 23:03:00,57.0,53.0,29.65,NNE,31,1.0,-999.0,88,-99.99,,,-99.99,,2013-06-12 05:03:00,
2013-06-11 23:12:00,57.0,53.0,29.65,NNE,31,1.0,-999.0,88,-99.99,,,-99.99,,2013-06-12 05:12:00,
2013-06-11 23:22:00,57.0,53.0,29.65,ESE,102,0.0,-999.0,88,-99.99,,,-99.99,,2013-06-12 05:22:00,
2013-06-11 23:32:00,57.0,54.0,29.64,ESE,103,1.0,-999.0,90,-99.99,,,-99.99,,2013-06-12 05:32:00,
2013-06-11 23:42:00,57.0,54.0,29.60,East,88,5.0,-999.0,90,-99.99,,,-99.99,,2013-06-12 05:42:00,
2013-06-11 23:52:00,57.0,54.0,29.60,East,88,5.0,-999.0,90,-99.99,,,-99.99,,2013-06-12 05:52:00,